Time;durP1;ratioP1;P1;durP2;ratioP2;P2;SDS_P1;SDS_P2;PMS_P1;PMS_P2;Temp;Humidity;BMP_temperature;BMP_pressure;BME280_temperature;BME280_humidity;BME280_pressure;Samples;Min_cycle;Max_cycle;Signal;HPM_P1;HPM_P2
2022/05/03 00:02:20;;;;;;;5.78;1.48;;;;;;;;;;5109152;28;20028;-52
2022/05/03 00:05:07;;;;;;;3.92;1.15;;;;;;;;;;5111340;28;20072;-52
2022/05/03 00:07:52;;;;;;;3.78;1.20;;;;;;;;;;5111227;28;20023;-56
2022/05/03 00:10:36;;;;;;;4.10;1.35;;;;;;;;;;5110715;28;20920;-55
2022/05/03 00:13:04;;;;;;;4.63;1.10;;;;;;;;;;5111059;28;20023;-56
2022/05/03 00:15:32;;;;;;;4.50;1.38;;;;;;;;;;5110592;28;20477;-50
2022/05/03 00:17:59;;;;;;;3.83;1.27;;;;;;;;;;5109136;28;20088;-50
2022/05/03 00:20:26;;;;;;;2.95;1.08;;;;;;;;;;5111298;28;20023;-53
2022/05/03 00:22:54;;;;;;;3.58;1.38;;;;;;;;;;5110724;28;20115;-50
2022/05/03 00:25:20;;;;;;;4.70;1.38;;;;;;;;;;5110672;28;20060;-51
2022/05/03 00:27:46;;;;;;;3.95;0.98;;;;;;;;;;5110333;28;20051;-50
2022/05/03 00:30:12;;;;;;;2.72;1.00;;;;;;;;;;5110684;28;20107;-51
2022/05/03 00:32:40;;;;;;;2.58;1.10;;;;;;;;;;5108235;28;20055;-53
2022/05/03 00:35:07;;;;;;;4.18;1.10;;;;;;;;;;5110294;28;20394;-51
2022/05/03 00:37:34;;;;;;;2.40;1.10;;;;;;;;;;5110544;28;20114;-53
2022/05/03 00:40:00;;;;;;;3.20;1.20;;;;;;;;;;5106976;28;20020;-52
2022/05/03 00:42:30;;;;;;;5.45;1.33;;;;;;;;;;5110107;28;20027;-54
2022/05/03 00:44:59;;;;;;;5.60;1.10;;;;;;;;;;5110241;28;20020;-51
2022/05/03 00:47:43;;;;;;;4.63;1.10;;;;;;;;;;5109713;28;20031;-53
2022/05/03 00:50:11;;;;;;;4.70;1.30;;;;;;;;;;5109885;28;20024;-54
2022/05/03 00:52:38;;;;;;;2.90;1.33;;;;;;;;;;5110056;28;20453;-55
2022/05/03 00:55:07;;;;;;;2.63;0.90;;;;;;;;;;5109703;28;20020;-56
2022/05/03 00:57:41;;;;;;;2.33;0.90;;;;;;;;;;5110280;28;20035;-54
2022/05/03 01:00:08;;;;;;;3.38;1.20;;;;;;;;;;5109728;28;20161;-55
2022/05/03 01:02:34;;;;;;;2.90;1.02;;;;;;;;;;5098503;28;20036;-54
2022/05/03 01:05:08;;;;;;;4.03;1.50;;;;;;;;;;5104296;28;20031;-53
2022/05/03 01:07:35;;;;;;;2.45;1.00;;;;;;;;;;5109905;28;20511;-55
2022/05/03 01:10:10;;;;;;;3.05;1.02;;;;;;;;;;5109595;28;20088;-52
2022/05/03 01:12:45;;;;;;;3.80;1.38;;;;;;;;;;5109800;28;20059;-53
2022/05/03 01:15:17;;;;;;;2.47;0.95;;;;;;;;;;5107198;28;20118;-54
2022/05/03 01:17:50;;;;;;;2.42;1.17;;;;;;;;;;5109465;28;20504;-56
2022/05/03 01:20:30;;;;;;;1.83;1.10;;;;;;;;;;5109745;28;20107;-53
2022/05/03 01:22:57;;;;;;;;;;;;;;;;;;5110478;28;20028;-52
2022/05/03 01:25:43;;;;;;;3.97;1.35;;;;;;;;;;5108818;28;19961;-53
2022/05/03 01:28:28;;;;;;;3.78;1.48;;;;;;;;;;5109685;28;20042;-51
2022/05/03 01:30:57;;;;;;;3.45;1.13;;;;;;;;;;5106605;28;20048;-53
2022/05/03 01:33:32;;;;;;;2.72;1.33;;;;;;;;;;5091291;28;20031;-52
2022/05/03 01:36:00;;;;;;;2.38;1.17;;;;;;;;;;5103397;28;20096;-55
2022/05/03 01:38:34;;;;;;;2.08;1.00;;;;;;;;;;5107072;28;20024;-52
2022/05/03 01:41:12;;;;;;;2.35;1.10;;;;;;;;;;5108818;28;20050;-54
2022/05/03 01:44:02;;;;;;;2.47;1.13;;;;;;;;;;5108985;28;20063;-55
2022/05/03 01:46:32;;;;;;;3.67;1.05;;;;;;;;;;5100060;28;20028;-54
2022/05/03 01:52:03;;;;;;;3.78;1.45;;;;;;;;;;5105205;28;20594;-55
2022/05/03 01:54:30;;;;;;;1.95;0.90;;;;;;;;;;5047592;28;20072;-54
2022/05/03 01:57:04;;;;;;;2.95;1.17;;;;;;;;;;5104555;28;20469;-52
2022/05/03 01:59:31;;;;;;;2.08;1.17;;;;;;;;;;5088374;28;20024;-54
2022/05/03 02:02:00;;;;;;;1.60;0.90;;;;;;;;;;5102335;28;20042;-54
2022/05/03 02:04:30;;;;;;;2.22;1.13;;;;;;;;;;5108538;28;20031;-53
2022/05/03 02:07:00;;;;;;;3.35;1.13;;;;;;;;;;5108560;28;20084;-54
2022/05/03 02:09:29;;;;;;;2.60;1.20;;;;;;;;;;5107512;28;20497;-52
2022/05/03 02:12:05;;;;;;;1.83;0.95;;;;;;;;;;5107485;28;20446;-53
2022/05/03 02:14:45;;;;;;;2.35;1.17;;;;;;;;;;5108247;28;20024;-56
2022/05/03 02:17:20;;;;;;;2.30;1.15;;;;;;;;;;5107193;28;20020;-55
2022/05/03 02:20:06;;;;;;;3.45;0.90;;;;;;;;;;5108784;28;20028;-54
2022/05/03 02:22:40;;;;;;;5.13;1.33;;;;;;;;;;5108286;28;20032;-51
2022/05/03 02:25:11;;;;;;;1.98;1.15;;;;;;;;;;5107799;28;20119;-53
2022/05/03 02:27:39;;;;;;;2.25;1.15;;;;;;;;;;5107849;28;20070;-55
2022/05/03 02:30:05;;;;;;;3.08;1.20;;;;;;;;;;5108200;28;20032;-54
2022/05/03 02:32:43;;;;;;;2.03;1.23;;;;;;;;;;5107587;28;20130;-52
2022/05/03 02:35:10;;;;;;;3.95;1.20;;;;;;;;;;5108368;28;20186;-55
2022/05/03 02:37:56;;;;;;;1.77;1.08;;;;;;;;;;5108127;28;20016;-51
2022/05/03 02:40:25;;;;;;;3.40;1.33;;;;;;;;;;5104795;28;20059;-52
2022/05/03 02:42:52;;;;;;;2.53;1.17;;;;;;;;;;5107668;28;20422;-51
2022/05/03 02:45:18;;;;;;;2.05;1.00;;;;;;;;;;5107590;28;20024;-53
2022/05/03 02:47:45;;;;;;;3.25;1.38;;;;;;;;;;5107709;28;20072;-53
2022/05/03 02:50:11;;;;;;;3.92;1.38;;;;;;;;;;5108240;28;20030;-53
2022/05/03 02:52:40;;;;;;;3.40;1.20;;;;;;;;;;5107171;28;20019;-54
2022/05/03 02:55:06;;;;;;;2.57;1.00;;;;;;;;;;5108100;28;20024;-53
2022/05/03 02:57:54;;;;;;;2.40;1.10;;;;;;;;;;5107414;28;20495;-53
2022/05/03 03:03:11;;;;;;;3.08;1.23;;;;;;;;;;5094858;28;20046;-51
2022/05/03 03:05:38;;;;;;;2.13;1.10;;;;;;;;;;5107771;28;20552;-55
2022/05/03 03:08:05;;;;;;;2.85;1.20;;;;;;;;;;5107042;28;20015;-54
2022/05/03 03:10:38;;;;;;;2.17;1.10;;;;;;;;;;5107694;28;20027;-56
2022/05/03 03:13:07;;;;;;;2.65;1.00;;;;;;;;;;5107565;28;20481;-54
2022/05/03 03:15:36;;;;;;;2.97;1.15;;;;;;;;;;5107411;28;20023;-55
2022/05/03 03:18:06;;;;;;;2.40;1.23;;;;;;;;;;5107963;28;20028;-54
2022/05/03 03:20:34;;;;;;;2.67;1.00;;;;;;;;;;5107789;28;20015;-55
2022/05/03 03:23:02;;;;;;;2.60;1.10;;;;;;;;;;5107497;28;20043;-56
2022/05/03 03:25:28;;;;;;;2.08;1.00;;;;;;;;;;5107625;28;20106;-53
2022/05/03 03:27:56;;;;;;;2.40;1.25;;;;;;;;;;5108243;28;20104;-50
2022/05/03 03:30:22;;;;;;;2.60;1.10;;;;;;;;;;5109892;28;20378;-53
2022/05/03 03:32:50;;;;;;;3.08;1.17;;;;;;;;;;5111497;28;20452;-54
2022/05/03 03:35:16;;;;;;;2.75;1.23;;;;;;;;;;5111075;28;20027;-51
2022/05/03 03:37:46;;;;;;;1.63;1.00;;;;;;;;;;5110953;28;20059;-53
2022/05/03 03:40:13;;;;;;;3.03;1.30;;;;;;;;;;5109815;28;20046;-52
2022/05/03 03:42:39;;;;;;;2.83;1.25;;;;;;;;;;5110686;28;20040;-54
2022/05/03 03:45:07;;;;;;;2.75;1.20;;;;;;;;;;5110633;28;20102;-53
2022/05/03 03:47:33;;;;;;;2.67;1.27;;;;;;;;;;5111268;28;20114;-56
2022/05/03 03:49:59;;;;;;;3.13;1.83;;;;;;;;;;5110849;28;20167;-55
2022/05/03 03:52:26;;;;;;;1.92;1.23;;;;;;;;;;5110673;28;20031;-53
2022/05/03 03:54:53;;;;;;;2.53;1.30;;;;;;;;;;5099923;28;20051;-54
2022/05/03 03:57:20;;;;;;;2.42;1.10;;;;;;;;;;5110300;28;20339;-55
2022/05/03 03:59:46;;;;;;;2.42;1.33;;;;;;;;;;5110666;28;20032;-54
2022/05/03 04:02:12;;;;;;;2.30;1.17;;;;;;;;;;5110915;28;20450;-54
2022/05/03 04:04:38;;;;;;;3.42;1.60;;;;;;;;;;5110691;28;20047;-53
2022/05/03 04:07:05;;;;;;;2.15;1.30;;;;;;;;;;5110345;28;20030;-53
2022/05/03 04:09:31;;;;;;;3.72;1.60;;;;;;;;;;5105243;28;20046;-53
2022/05/03 04:11:58;;;;;;;2.33;1.30;;;;;;;;;;5109995;28;20466;-52
2022/05/03 04:14:24;;;;;;;2.33;1.10;;;;;;;;;;5109435;28;20122;-52
2022/05/03 04:16:50;;;;;;;3.05;1.30;;;;;;;;;;5110205;28;20030;-50
2022/05/03 04:19:16;;;;;;;3.00;1.50;;;;;;;;;;5107528;27;20091;-50
2022/05/03 04:21:42;;;;;;;5.25;1.95;;;;;;;;;;5108205;28;20079;-53
2022/05/03 04:24:08;;;;;;;3.38;1.30;;;;;;;;;;5109810;28;20020;-54
2022/05/03 04:26:36;;;;;;;2.85;1.33;;;;;;;;;;5109844;28;20028;-51
2022/05/03 04:29:03;;;;;;;2.63;1.20;;;;;;;;;;5109474;28;20036;-54
2022/05/03 04:31:30;;;;;;;2.50;1.20;;;;;;;;;;5109992;28;20150;-56
2022/05/03 04:33:56;;;;;;;3.33;1.60;;;;;;;;;;5110341;28;20114;-55
2022/05/03 04:36:25;;;;;;;3.83;1.55;;;;;;;;;;5109552;28;20024;-53
2022/05/03 04:38:51;;;;;;;3.47;1.23;;;;;;;;;;5107745;28;20032;-55
2022/05/03 04:41:17;;;;;;;2.90;1.40;;;;;;;;;;5108836;28;20085;-51
2022/05/03 04:43:43;;;;;;;4.18;1.27;;;;;;;;;;5109538;28;20071;-53
2022/05/03 04:46:09;;;;;;;2.00;1.25;;;;;;;;;;5104563;28;20107;-52
2022/05/03 04:48:35;;;;;;;7.35;2.42;;;;;;;;;;5110067;28;20103;-55
2022/05/03 04:51:01;;;;;;;11.07;3.13;;;;;;;;;;5109905;28;20074;-55
2022/05/03 04:53:27;;;;;;;23.55;5.68;;;;;;;;;;5109707;28;20106;-55
2022/05/03 04:55:53;;;;;;;24.50;6.03;;;;;;;;;;5109668;28;20062;-55
2022/05/03 04:58:19;;;;;;;10.40;4.97;;;;;;;;;;5109631;28;20460;-55
2022/05/03 05:00:45;;;;;;;9.57;5.07;;;;;;;;;;5101207;28;20546;-52
2022/05/03 05:03:13;;;;;;;9.95;4.90;;;;;;;;;;5105686;28;20123;-56
2022/05/03 05:05:39;;;;;;;7.57;4.60;;;;;;;;;;5109297;28;20036;-56
2022/05/03 05:08:06;;;;;;;19.13;4.85;;;;;;;;;;5107840;28;20492;-53
2022/05/03 05:10:32;;;;;;;10.55;4.68;;;;;;;;;;5105700;28;20134;-54
2022/05/03 05:13:02;;;;;;;10.13;5.53;;;;;;;;;;5109305;28;20469;-55
2022/05/03 05:15:29;;;;;;;10.07;4.72;;;;;;;;;;5108549;28;20019;-53
2022/05/03 05:17:56;;;;;;;12.75;4.85;;;;;;;;;;5108588;28;20062;-54
2022/05/03 05:20:24;;;;;;;14.18;5.10;;;;;;;;;;5108664;28;20058;-56
2022/05/03 05:22:50;;;;;;;10.23;4.65;;;;;;;;;;5107618;28;20065;-56
2022/05/03 05:25:16;;;;;;;13.30;6.05;;;;;;;;;;5108604;28;20019;-54
2022/05/03 05:27:43;;;;;;;8.63;5.32;;;;;;;;;;5108927;28;20130;-53
2022/05/03 05:30:10;;;;;;;7.25;4.80;;;;;;;;;;5108689;28;20098;-56
2022/05/03 05:32:36;;;;;;;10.05;5.55;;;;;;;;;;5109289;28;20146;-55
2022/05/03 05:35:04;;;;;;;7.10;4.30;;;;;;;;;;5108704;28;20215;-53
2022/05/03 05:37:30;;;;;;;7.85;4.57;;;;;;;;;;5109100;28;20035;-53
2022/05/03 05:39:56;;;;;;;35.40;5.15;;;;;;;;;;5100427;28;20110;-52
2022/05/03 05:42:23;;;;;;;14.45;4.78;;;;;;;;;;5108515;28;20042;-56
2022/05/03 05:44:49;;;;;;;21.27;5.35;;;;;;;;;;5107875;28;20032;-52
2022/05/03 05:47:17;;;;;;;18.85;5.28;;;;;;;;;;5107968;28;20023;-53
2022/05/03 05:49:44;;;;;;;16.48;4.75;;;;;;;;;;5107984;28;20028;-52
2022/05/03 05:54:55;;;;;;;18.27;4.78;;;;;;;;;;5103900;28;20092;-53
2022/05/03 05:57:21;;;;;;;18.23;4.50;;;;;;;;;;5108151;28;20469;-54
2022/05/03 05:59:47;;;;;;;13.70;5.20;;;;;;;;;;5108231;28;20095;-53
2022/05/03 06:02:14;;;;;;;9.52;3.95;;;;;;;;;;5107315;28;20093;-53
2022/05/03 06:04:41;;;;;;;12.35;4.55;;;;;;;;;;5100989;28;20379;-53
2022/05/03 06:07:07;;;;;;;13.75;3.28;;;;;;;;;;5108780;28;20103;-54
2022/05/03 06:09:36;;;;;;;9.02;3.55;;;;;;;;;;5108641;28;20103;-55
2022/05/03 06:12:02;;;;;;;7.60;3.60;;;;;;;;;;5108607;28;20782;-53
2022/05/03 06:14:28;;;;;;;6.82;3.75;;;;;;;;;;5108487;28;20616;-55
2022/05/03 06:16:54;;;;;;;9.75;3.20;;;;;;;;;;5100740;28;20585;-55
2022/05/03 06:19:21;;;;;;;7.32;3.03;;;;;;;;;;5093457;28;20031;-54
2022/05/03 06:21:47;;;;;;;13.05;3.22;;;;;;;;;;5108540;28;20059;-53
2022/05/03 06:24:13;;;;;;;12.10;3.85;;;;;;;;;;5103190;28;20028;-54
2022/05/03 06:26:39;;;;;;;17.15;3.47;;;;;;;;;;5097244;28;20096;-53
2022/05/03 06:29:08;;;;;;;23.48;4.13;;;;;;;;;;5106111;28;20070;-56
2022/05/03 06:31:35;;;;;;;12.68;3.42;;;;;;;;;;5106798;28;20051;-52
2022/05/03 06:34:01;;;;;;;15.40;3.78;;;;;;;;;;5108623;28;20096;-52
2022/05/03 06:36:27;;;;;;;9.95;3.05;;;;;;;;;;5108078;28;20055;-53
2022/05/03 06:38:53;;;;;;;12.05;3.30;;;;;;;;;;5107980;28;20016;-55
2022/05/03 06:41:19;;;;;;;8.52;3.17;;;;;;;;;;5108607;28;20019;-52
2022/05/03 06:43:46;;;;;;;13.02;3.22;;;;;;;;;;5108621;28;20115;-54
2022/05/03 06:46:12;;;;;;;14.55;3.60;;;;;;;;;;5106845;28;20500;-53
2022/05/03 06:48:38;;;;;;;9.43;3.10;;;;;;;;;;5107153;28;20020;-53
2022/05/03 06:51:07;;;;;;;15.27;3.28;;;;;;;;;;5108179;28;20051;-56
2022/05/03 06:53:33;;;;;;;15.15;3.17;;;;;;;;;;5099821;28;20036;-58
2022/05/03 06:55:59;;;;;;;11.32;2.78;;;;;;;;;;5097471;28;20020;-58
2022/05/03 06:58:26;;;;;;;10.10;3.55;;;;;;;;;;5103762;28;20105;-55
2022/05/03 07:00:53;;;;;;;11.30;3.33;;;;;;;;;;5096037;28;20400;-57
2022/05/03 07:03:19;;;;;;;10.27;3.65;;;;;;;;;;5101700;28;20043;-59
2022/05/03 07:05:45;;;;;;;9.55;3.35;;;;;;;;;;5103269;27;20058;-54
2022/05/03 07:08:11;;;;;;;7.03;3.05;;;;;;;;;;5111730;28;20058;-55
2022/05/03 07:10:38;;;;;;;11.93;3.45;;;;;;;;;;5111520;28;20027;-53
2022/05/03 07:13:05;;;;;;;11.23;3.05;;;;;;;;;;5110400;28;20028;-56
2022/05/03 07:15:31;;;;;;;7.47;3.53;;;;;;;;;;5103034;28;20036;-56
2022/05/03 07:23:27;;;;;;;15.25;3.30;;;;;;;;;;5099359;27;20406;-54
2022/05/03 07:25:53;;;;;;;4.88;3.13;;;;;;;;;;5110647;28;20023;-53
2022/05/03 07:28:20;;;;;;;16.50;3.05;;;;;;;;;;5110964;28;20058;-55
2022/05/03 07:30:46;;;;;;;12.77;3.30;;;;;;;;;;5109044;28;20043;-55
2022/05/03 07:33:13;;;;;;;8.98;3.72;;;;;;;;;;5110117;28;20028;-54
2022/05/03 07:35:39;;;;;;;12.25;3.47;;;;;;;;;;5109361;28;20020;-53
2022/05/03 07:38:06;;;;;;;7.55;3.25;;;;;;;;;;5108772;28;20073;-53
2022/05/03 07:40:32;;;;;;;19.27;4.50;;;;;;;;;;5110836;28;20024;-50
2022/05/03 07:42:59;;;;;;;18.85;3.63;;;;;;;;;;5109625;28;20045;-54
2022/05/03 07:45:25;;;;;;;15.30;4.20;;;;;;;;;;5100007;28;20120;-54
2022/05/03 07:47:51;;;;;;;19.20;3.92;;;;;;;;;;5098672;28;20483;-54
2022/05/03 07:50:17;;;;;;;15.07;3.65;;;;;;;;;;5109033;28;20485;-52
2022/05/03 07:52:43;;;;;;;13.98;2.97;;;;;;;;;;5106097;28;20038;-54
2022/05/03 07:55:09;;;;;;;17.67;3.65;;;;;;;;;;5111253;28;20031;-55
2022/05/03 07:57:35;;;;;;;21.08;3.85;;;;;;;;;;5110785;28;20022;-54
2022/05/03 08:00:01;;;;;;;12.95;3.17;;;;;;;;;;5104897;28;20020;-52
2022/05/03 08:02:28;;;;;;;12.68;3.22;;;;;;;;;;5101828;28;20028;-55
2022/05/03 08:04:54;;;;;;;12.82;2.85;;;;;;;;;;5108570;28;20122;-54
2022/05/03 08:07:21;;;;;;;16.48;2.95;;;;;;;;;;5111079;28;20027;-53
2022/05/03 08:09:48;;;;;;;26.38;3.88;;;;;;;;;;5101764;28;20019;-53
2022/05/03 08:12:15;;;;;;;13.60;5.10;;;;;;;;;;5110829;28;20032;-54
2022/05/03 08:14:41;;;;;;;14.02;6.20;;;;;;;;;;5110431;28;20122;-52
2022/05/03 08:17:08;;;;;;;12.55;6.10;;;;;;;;;;5110999;28;20061;-54
2022/05/03 08:19:35;;;;;;;9.30;5.50;;;;;;;;;;5110619;28;20513;-55
2022/05/03 08:22:01;;;;;;;12.77;6.22;;;;;;;;;;5111027;28;20039;-55
2022/05/03 08:24:27;;;;;;;10.50;5.60;;;;;;;;;;5110302;28;20092;-53
2022/05/03 08:26:54;;;;;;;9.52;6.28;;;;;;;;;;5110753;28;20028;-53
2022/05/03 08:29:20;;;;;;;11.20;6.10;;;;;;;;;;5110528;28;20095;-55
2022/05/03 08:31:46;;;;;;;15.57;7.05;;;;;;;;;;5111005;28;20047;-53
2022/05/03 08:34:13;;;;;;;17.33;6.30;;;;;;;;;;5110193;28;20018;-56
2022/05/03 08:36:39;;;;;;;10.25;6.45;;;;;;;;;;5110662;28;20031;-56
2022/05/03 08:42:02;;;;;;;10.55;6.28;;;;;;;;;;5105042;27;20050;-51
2022/05/03 08:44:31;;;;;;;9.73;5.32;;;;;;;;;;5099690;28;20042;-55
2022/05/03 08:46:59;;;;;;;7.97;5.13;;;;;;;;;;5102061;28;20122;-55
2022/05/03 08:49:30;;;;;;;12.85;5.90;;;;;;;;;;5099546;27;20114;-54
2022/05/03 08:51:56;;;;;;;8.18;5.45;;;;;;;;;;5101877;28;20035;-54
2022/05/03 08:54:22;;;;;;;10.77;5.40;;;;;;;;;;5099373;28;20024;-56
2022/05/03 08:56:48;;;;;;;8.40;5.25;;;;;;;;;;5100958;28;20023;-54
2022/05/03 08:59:14;;;;;;;8.93;5.20;;;;;;;;;;5102230;28;20076;-55
2022/05/03 09:01:40;;;;;;;8.18;4.90;;;;;;;;;;5099830;28;20023;-55
2022/05/03 09:04:07;;;;;;;10.70;5.18;;;;;;;;;;5097739;27;20024;-53
2022/05/03 09:06:43;;;;;;;9.60;4.97;;;;;;;;;;5102570;28;20024;-54
2022/05/03 09:09:13;;;;;;;7.85;4.70;;;;;;;;;;5101689;28;20028;-51
2022/05/03 09:11:49;;;;;;;10.15;4.68;;;;;;;;;;5099480;27;20485;-56
2022/05/03 09:14:34;;;;;;;6.70;4.30;;;;;;;;;;5098925;28;20032;-54
2022/05/03 09:17:02;;;;;;;6.93;4.15;;;;;;;;;;5103640;28;20043;-52
2022/05/03 09:19:28;;;;;;;7.13;4.70;;;;;;;;;;5098241;28;20055;-56
2022/05/03 09:24:52;;;;;;;7.05;4.53;;;;;;;;;;5100598;28;20756;-53
2022/05/03 09:27:19;;;;;;;6.38;4.28;;;;;;;;;;5101919;28;20127;-51
2022/05/03 09:30:00;;;;;;;6.28;4.15;;;;;;;;;;5100355;28;20226;-52
2022/05/03 09:32:43;;;;;;;6.75;3.85;;;;;;;;;;5101396;28;20043;-56
2022/05/03 09:35:28;;;;;;;6.38;3.63;;;;;;;;;;5099960;28;20031;-52
2022/05/03 09:37:54;;;;;;;6.30;3.65;;;;;;;;;;5098932;28;20027;-52
2022/05/03 09:40:20;;;;;;;8.38;3.70;;;;;;;;;;5099829;28;20034;-51
2022/05/03 09:42:53;;;;;;;7.07;3.78;;;;;;;;;;5100290;28;20032;-54
2022/05/03 09:45:26;;;;;;;6.85;3.60;;;;;;;;;;5098761;28;20061;-51
2022/05/03 09:47:53;;;;;;;8.23;5.13;;;;;;;;;;5101147;28;20031;-54
2022/05/03 09:50:31;;;;;;;10.50;6.15;;;;;;;;;;5100970;28;20043;-55
2022/05/03 09:52:59;;;;;;;12.48;5.93;;;;;;;;;;5101779;28;20107;-52
2022/05/03 09:55:32;;;;;;;10.32;5.63;;;;;;;;;;5101499;28;20023;-54
2022/05/03 09:58:02;;;;;;;9.13;5.40;;;;;;;;;;5101245;28;20050;-52
2022/05/03 10:00:30;;;;;;;9.80;5.05;;;;;;;;;;5100538;28;20111;-52
2022/05/03 10:02:58;;;;;;;11.55;5.40;;;;;;;;;;5096758;28;20046;-51
2022/05/03 10:05:28;;;;;;;11.98;4.95;;;;;;;;;;5098515;28;20066;-53
2022/05/03 10:07:54;;;;;;;8.68;5.05;;;;;;;;;;5100771;28;20066;-53
2022/05/03 10:10:21;;;;;;;10.30;5.05;;;;;;;;;;5097532;28;20035;-53
2022/05/03 10:12:49;;;;;;;10.57;5.35;;;;;;;;;;5097680;27;20051;-53
2022/05/03 10:20:35;;;;;;;11.90;5.53;;;;;;;;;;5099676;28;20028;-56
2022/05/03 10:20:50;;;;;;;9.57;4.47;;;;;;;;;;5099361;28;20066;-57
2022/05/03 10:23:28;;;;;;;9.45;4.72;;;;;;;;;;5100479;28;20043;-53
2022/05/03 10:25:55;;;;;;;7.80;4.90;;;;;;;;;;5098529;28;20115;-55
2022/05/03 10:28:21;;;;;;;7.25;4.18;;;;;;;;;;5098852;28;20035;-54
2022/05/03 10:31:06;;;;;;;8.68;4.80;;;;;;;;;;5097123;28;20039;-54
2022/05/03 10:33:32;;;;;;;8.23;4.60;;;;;;;;;;5098513;28;20127;-53
2022/05/03 10:35:58;;;;;;;12.02;5.20;;;;;;;;;;5100462;28;20445;-53
2022/05/03 10:38:44;;;;;;;10.75;6.15;;;;;;;;;;5101628;28;20027;-55
2022/05/03 10:41:11;;;;;;;9.82;5.70;;;;;;;;;;5102114;28;20027;-51
2022/05/03 10:43:38;;;;;;;11.20;6.32;;;;;;;;;;5105692;28;20028;-55
2022/05/03 10:46:14;;;;;;;13.43;6.10;;;;;;;;;;5105219;28;20038;-56
2022/05/03 10:48:44;;;;;;;9.25;6.07;;;;;;;;;;5103430;28;20032;-54
2022/05/03 10:51:15;;;;;;;8.00;5.82;;;;;;;;;;5105226;28;20074;-54
2022/05/03 10:53:41;;;;;;;10.02;5.75;;;;;;;;;;5102466;27;20515;-54
2022/05/03 10:56:18;;;;;;;9.10;6.00;;;;;;;;;;5101491;28;20052;-53
2022/05/03 10:58:46;;;;;;;11.70;6.07;;;;;;;;;;5103037;28;20563;-55
2022/05/03 11:01:14;;;;;;;8.48;5.47;;;;;;;;;;5102962;27;20381;-55
2022/05/03 11:03:40;;;;;;;8.10;5.30;;;;;;;;;;5103482;28;20412;-55
2022/05/03 11:06:19;;;;;;;12.70;6.57;;;;;;;;;;5103188;28;20019;-54
2022/05/03 11:11:44;;;;;;;8.57;4.85;;;;;;;;;;5100090;28;20044;-55
2022/05/03 11:14:22;;;;;;;9.43;5.00;;;;;;;;;;5109393;28;20416;-54
2022/05/03 11:16:48;;;;;;;10.98;5.20;;;;;;;;;;5109763;28;20494;-55
2022/05/03 11:19:16;;;;;;;9.13;5.43;;;;;;;;;;5103808;28;20027;-55
2022/05/03 11:21:42;;;;;;;10.75;5.05;;;;;;;;;;5105651;28;20334;-54
2022/05/03 11:24:18;;;;;;;11.05;4.93;;;;;;;;;;5106764;28;20028;-56
2022/05/03 11:26:45;;;;;;;10.40;4.88;;;;;;;;;;5109044;28;20119;-54
2022/05/03 11:29:12;;;;;;;9.13;5.13;;;;;;;;;;5110069;28;20106;-52
2022/05/03 11:31:39;;;;;;;10.68;5.45;;;;;;;;;;5108851;28;20075;-55
2022/05/03 11:34:06;;;;;;;10.43;4.90;;;;;;;;;;5109228;28;20102;-55
2022/05/03 11:36:33;;;;;;;8.68;5.75;;;;;;;;;;5108522;28;20028;-53
2022/05/03 11:39:02;;;;;;;9.43;5.93;;;;;;;;;;5107514;28;20059;-51
2022/05/03 11:41:29;;;;;;;8.98;5.63;;;;;;;;;;5107949;28;20086;-53
2022/05/03 11:43:55;;;;;;;9.25;6.00;;;;;;;;;;5088149;28;20693;-53
2022/05/03 11:46:23;;;;;;;15.98;12.32;;;;;;;;;;5102886;28;20494;-53
2022/05/03 11:49:02;;;;;;;15.18;9.48;;;;;;;;;;5108244;28;20081;-55
2022/05/03 11:57:12;;;;;;;13.75;7.03;;;;;;;;;;5108743;28;20035;-55
2022/05/03 11:59:45;;;;;;;13.95;6.50;;;;;;;;;;5110209;28;20153;-54
2022/05/03 12:02:15;;;;;;;9.02;5.82;;;;;;;;;;5106322;28;20092;-53
2022/05/03 12:05:04;;;;;;;11.43;6.70;;;;;;;;;;5110156;28;20096;-52
2022/05/03 12:07:40;;;;;;;16.77;5.80;;;;;;;;;;5106548;28;20039;-53
2022/05/03 12:10:25;;;;;;;12.85;5.47;;;;;;;;;;5110033;28;20115;-54
2022/05/03 12:13:09;;;;;;;7.70;5.15;;;;;;;;;;5109753;28;20104;-50
2022/05/03 12:15:43;;;;;;;15.20;5.90;;;;;;;;;;5109837;28;20031;-55
2022/05/03 12:18:17;;;;;;;9.80;6.40;;;;;;;;;;5108664;28;20394;-52
2022/05/03 12:20:47;;;;;;;9.57;6.28;;;;;;;;;;5110141;28;20507;-54
2022/05/03 12:23:17;;;;;;;9.27;5.80;;;;;;;;;;5109285;28;20128;-52
2022/05/03 12:25:45;;;;;;;9.88;5.53;;;;;;;;;;5109515;28;20257;-56
2022/05/03 12:28:12;;;;;;;9.23;5.72;;;;;;;;;;5109403;28;20031;-55
2022/05/03 12:30:38;;;;;;;8.60;5.53;;;;;;;;;;5109129;28;20511;-53
2022/05/03 12:33:05;;;;;;;10.63;5.20;;;;;;;;;;5074576;28;1011222;-53
2022/05/03 12:35:33;;;;;;;9.13;5.07;;;;;;;;;;5110953;28;20039;-55
2022/05/03 12:38:08;;;;;;;13.05;6.25;;;;;;;;;;5110030;28;20500;-54
2022/05/03 12:40:42;;;;;;;18.17;10.77;;;;;;;;;;5110206;28;20039;-54
2022/05/03 12:43:15;;;;;;;15.20;8.65;;;;;;;;;;5103168;28;20036;-55
2022/05/03 12:45:41;;;;;;;15.65;8.90;;;;;;;;;;5110245;28;20069;-53
2022/05/03 12:48:07;;;;;;;9.25;6.57;;;;;;;;;;5109968;28;20047;-55
2022/05/03 12:50:35;;;;;;;12.02;6.05;;;;;;;;;;5108012;27;20822;-52
2022/05/03 12:53:01;;;;;;;12.60;6.72;;;;;;;;;;5109865;28;20473;-52
2022/05/03 12:55:28;;;;;;;10.70;5.80;;;;;;;;;;5109682;28;20024;-51
2022/05/03 13:00:39;;;;;;;10.10;5.82;;;;;;;;;;5108877;28;20496;-55
2022/05/03 13:03:10;;;;;;;12.13;5.47;;;;;;;;;;5109845;28;20032;-54
2022/05/03 13:05:36;;;;;;;9.55;5.93;;;;;;;;;;5109545;28;20062;-55
2022/05/03 13:08:02;;;;;;;11.98;6.20;;;;;;;;;;5109599;28;20023;-51
2022/05/03 13:10:28;;;;;;;15.32;6.30;;;;;;;;;;5110082;28;20110;-52
2022/05/03 13:12:55;;;;;;;15.52;5.88;;;;;;;;;;5109317;28;20481;-51
2022/05/03 13:15:21;;;;;;;11.65;6.68;;;;;;;;;;5109418;28;20019;-53
2022/05/03 13:17:47;;;;;;;12.27;6.10;;;;;;;;;;5107420;28;20781;-54
2022/05/03 13:20:13;;;;;;;19.90;5.55;;;;;;;;;;5108724;28;20024;-53
2022/05/03 13:22:39;;;;;;;9.00;6.10;;;;;;;;;;5109571;28;20043;-53
2022/05/03 13:25:05;;;;;;;10.80;5.55;;;;;;;;;;5103664;28;20020;-52
2022/05/03 13:27:32;;;;;;;11.43;6.50;;;;;;;;;;5088944;28;20024;-54
2022/05/03 13:29:58;;;;;;;13.13;5.90;;;;;;;;;;5104546;28;20533;-54
2022/05/03 13:32:24;;;;;;;10.60;5.95;;;;;;;;;;5109250;28;20525;-54
2022/05/03 13:34:50;;;;;;;11.60;5.95;;;;;;;;;;5108711;28;20020;-53
2022/05/03 13:42:46;;;;;;;10.40;4.72;;;;;;;;;;5108825;28;20043;-53
2022/05/03 13:45:12;;;;;;;8.85;5.00;;;;;;;;;;5109149;28;20031;-53
2022/05/03 13:47:38;;;;;;;8.00;4.78;;;;;;;;;;5109080;28;20508;-53
2022/05/03 13:50:04;;;;;;;8.60;5.32;;;;;;;;;;5109099;28;20055;-53
2022/05/03 13:52:33;;;;;;;9.25;5.50;;;;;;;;;;5108730;28;20031;-53
2022/05/03 13:54:59;;;;;;;9.30;5.28;;;;;;;;;;5109214;28;20034;-54
2022/05/03 13:57:26;;;;;;;32.33;5.90;;;;;;;;;;5108671;28;20212;-54
2022/05/03 13:59:52;;;;;;;8.20;5.65;;;;;;;;;;5109067;28;20046;-51
2022/05/03 14:02:18;;;;;;;9.13;5.32;;;;;;;;;;5108556;28;20039;-51
2022/05/03 14:04:44;;;;;;;7.78;4.53;;;;;;;;;;5108675;28;20027;-54
2022/05/03 14:07:10;;;;;;;9.43;4.22;;;;;;;;;;5108897;28;20110;-55
2022/05/03 14:09:36;;;;;;;8.20;5.57;;;;;;;;;;5108717;28;20114;-55
2022/05/03 14:12:03;;;;;;;8.40;5.18;;;;;;;;;;5108378;28;20076;-55
2022/05/03 14:14:29;;;;;;;8.13;4.43;;;;;;;;;;5108552;28;20038;-53
2022/05/03 14:16:55;;;;;;;8.57;5.13;;;;;;;;;;5108168;28;20058;-55
2022/05/03 14:19:21;;;;;;;10.15;5.18;;;;;;;;;;5107902;28;20106;-55
2022/05/03 14:21:50;;;;;;;29.02;16.38;;;;;;;;;;5106137;28;20656;-53
2022/05/03 14:24:16;;;;;;;23.63;9.37;;;;;;;;;;5104727;28;20123;-54
2022/05/03 14:26:42;;;;;;;16.65;8.48;;;;;;;;;;5107697;28;20046;-55
2022/05/03 14:29:08;;;;;;;12.90;8.23;;;;;;;;;;5105112;28;20028;-52
2022/05/03 14:31:37;;;;;;;15.85;8.05;;;;;;;;;;5104424;28;20066;-52
2022/05/03 14:34:05;;;;;;;15.48;7.68;;;;;;;;;;5103650;28;20020;-50
2022/05/03 14:36:32;;;;;;;16.73;7.78;;;;;;;;;;5108500;28;20462;-51
2022/05/03 14:38:58;;;;;;;16.27;9.20;;;;;;;;;;5108611;28;20037;-54
2022/05/03 14:41:24;;;;;;;12.52;7.43;;;;;;;;;;5108515;28;20031;-54
2022/05/03 14:43:50;;;;;;;13.05;7.40;;;;;;;;;;5108474;28;20123;-53
2022/05/03 14:46:16;;;;;;;13.70;7.38;;;;;;;;;;5103872;28;20064;-54
2022/05/03 14:48:42;;;;;;;12.55;6.90;;;;;;;;;;5107472;28;20028;-53
2022/05/03 14:51:09;;;;;;;15.05;7.07;;;;;;;;;;5107664;28;20533;-55
2022/05/03 14:53:35;;;;;;;15.90;7.70;;;;;;;;;;5107443;28;20055;-53
2022/05/03 15:04:15;;;;;;;13.57;6.38;;;;;;;;;;5107220;28;20050;-54
2022/05/03 15:06:41;;;;;;;14.55;7.10;;;;;;;;;;5107075;28;20161;-51
2022/05/03 15:09:10;;;;;;;15.48;7.10;;;;;;;;;;5108503;28;20023;-53
2022/05/03 15:11:37;;;;;;;12.18;6.07;;;;;;;;;;5102489;28;20031;-52
2022/05/03 15:14:06;;;;;;;11.48;6.20;;;;;;;;;;5106311;28;20091;-54
2022/05/03 15:16:32;;;;;;;14.10;6.80;;;;;;;;;;5107110;28;20139;-55
2022/05/03 15:18:59;;;;;;;22.33;7.40;;;;;;;;;;5107049;28;20056;-54
2022/05/03 15:21:25;;;;;;;15.35;6.80;;;;;;;;;;5108045;28;20114;-54
2022/05/03 15:26:35;;;;;;;11.18;6.00;;;;;;;;;;5110349;28;20089;-52
2022/05/03 15:29:02;;;;;;;11.50;5.95;;;;;;;;;;5110575;28;20073;-53
2022/05/03 15:31:28;;;;;;;10.50;6.03;;;;;;;;;;5110865;28;20052;-54
2022/05/03 15:33:55;;;;;;;12.07;7.15;;;;;;;;;;5111274;28;20477;-54
2022/05/03 15:36:25;;;;;;;11.70;5.88;;;;;;;;;;5111141;28;20393;-53
2022/05/03 15:38:51;;;;;;;9.65;5.45;;;;;;;;;;5111033;28;20397;-52